sensor_id;sensor_type;location;lat;lon;timestamp;P1;durP1;ratioP1;P2;durP2;ratioP2
77991;SDS011;67180;43.534;-5.652;2023-04-15T00:02:14;33.72;;;5.60;;
77991;SDS011;67180;43.534;-5.652;2023-04-15T00:04:42;46.58;;;6.53;;
77991;SDS011;67180;43.534;-5.652;2023-04-15T00:07:08;36.53;;;6.15;;
77991;SDS011;67180;43.534;-5.652;2023-04-15T00:09:35;37.95;;;6.85;;
77991;SDS011;67180;43.534;-5.652;2023-04-15T00:12:01;37.90;;;5.40;;
77991;SDS011;67180;43.534;-5.652;2023-04-15T00:14:27;36.45;;;5.25;;
77991;SDS011;67180;43.534;-5.652;2023-04-15T00:16:54;38.22;;;5.63;;
77991;SDS011;67180;43.534;-5.652;2023-04-15T00:19:21;38.90;;;5.80;;
77991;SDS011;67180;43.534;-5.652;2023-04-15T00:21:48;34.72;;;5.70;;
77991;SDS011;67180;43.534;-5.652;2023-04-15T00:24:15;30.77;;;6.82;;
77991;SDS011;67180;43.534;-5.652;2023-04-15T00:26:41;29.92;;;5.60;;
77991;SDS011;67180;43.534;-5.652;2023-04-15T00:29:07;36.20;;;6.57;;
77991;SDS011;67180;43.534;-5.652;2023-04-15T00:31:34;32.75;;;4.78;;
77991;SDS011;67180;43.534;-5.652;2023-04-15T00:34:00;44.10;;;6.22;;
77991;SDS011;67180;43.534;-5.652;2023-04-15T00:36:27;37.90;;;5.65;;
77991;SDS011;67180;43.534;-5.652;2023-04-15T00:38:53;39.05;;;5.65;;
77991;SDS011;67180;43.534;-5.652;2023-04-15T00:41:20;34.45;;;5.50;;
77991;SDS011;67180;43.534;-5.652;2023-04-15T00:43:47;42.10;;;5.93;;
77991;SDS011;67180;43.534;-5.652;2023-04-15T00:46:13;36.00;;;5.38;;
77991;SDS011;67180;43.534;-5.652;2023-04-15T00:48:40;37.20;;;5.53;;
77991;SDS011;67180;43.534;-5.652;2023-04-15T00:51:07;37.97;;;6.45;;
77991;SDS011;67180;43.534;-5.652;2023-04-15T00:53:33;43.47;;;5.78;;
77991;SDS011;67180;43.534;-5.652;2023-04-15T00:56:00;34.22;;;5.18;;
77991;SDS011;67180;43.534;-5.652;2023-04-15T00:58:26;36.42;;;5.22;;
77991;SDS011;67180;43.534;-5.652;2023-04-15T01:00:53;40.90;;;6.65;;
77991;SDS011;67180;43.534;-5.652;2023-04-15T01:03:20;37.50;;;5.40;;
77991;SDS011;67180;43.534;-5.652;2023-04-15T01:05:46;43.65;;;5.30;;
77991;SDS011;67180;43.534;-5.652;2023-04-15T01:08:12;41.45;;;6.38;;
77991;SDS011;67180;43.534;-5.652;2023-04-15T01:10:39;31.48;;;6.05;;
77991;SDS011;67180;43.534;-5.652;2023-04-15T01:13:05;36.30;;;5.25;;
77991;SDS011;67180;43.534;-5.652;2023-04-15T01:15:31;31.70;;;5.05;;
77991;SDS011;67180;43.534;-5.652;2023-04-15T01:17:57;40.55;;;6.57;;
77991;SDS011;67180;43.534;-5.652;2023-04-15T01:20:24;37.42;;;6.05;;
77991;SDS011;67180;43.534;-5.652;2023-04-15T01:22:50;42.47;;;5.90;;
77991;SDS011;67180;43.534;-5.652;2023-04-15T01:25:17;42.20;;;6.57;;
77991;SDS011;67180;43.534;-5.652;2023-04-15T01:27:44;35.63;;;5.13;;
77991;SDS011;67180;43.534;-5.652;2023-04-15T01:30:10;40.17;;;5.78;;
77991;SDS011;67180;43.534;-5.652;2023-04-15T01:32:36;38.90;;;5.43;;
77991;SDS011;67180;43.534;-5.652;2023-04-15T01:35:03;34.33;;;5.53;;
77991;SDS011;67180;43.534;-5.652;2023-04-15T01:37:29;40.42;;;6.35;;
77991;SDS011;67180;43.534;-5.652;2023-04-15T01:39:55;40.05;;;5.80;;
77991;SDS011;67180;43.534;-5.652;2023-04-15T01:42:23;37.10;;;5.45;;
77991;SDS011;67180;43.534;-5.652;2023-04-15T01:44:49;34.90;;;5.68;;
77991;SDS011;67180;43.534;-5.652;2023-04-15T01:47:15;39.50;;;5.88;;
77991;SDS011;67180;43.534;-5.652;2023-04-15T01:49:41;38.08;;;5.97;;
77991;SDS011;67180;43.534;-5.652;2023-04-15T01:52:07;45.13;;;5.80;;
77991;SDS011;67180;43.534;-5.652;2023-04-15T01:54:34;54.88;;;6.95;;
77991;SDS011;67180;43.534;-5.652;2023-04-15T01:57:00;42.08;;;6.03;;
77991;SDS011;67180;43.534;-5.652;2023-04-15T01:59:27;35.35;;;5.40;;
77991;SDS011;67180;43.534;-5.652;2023-04-15T02:01:54;47.20;;;7.03;;
77991;SDS011;67180;43.534;-5.652;2023-04-15T02:04:20;38.40;;;6.07;;
77991;SDS011;67180;43.534;-5.652;2023-04-15T02:06:46;39.25;;;5.88;;
77991;SDS011;67180;43.534;-5.652;2023-04-15T02:09:13;40.90;;;5.30;;
77991;SDS011;67180;43.534;-5.652;2023-04-15T02:11:39;35.72;;;5.18;;
77991;SDS011;67180;43.534;-5.652;2023-04-15T02:14:05;35.80;;;5.90;;
77991;SDS011;67180;43.534;-5.652;2023-04-15T02:16:31;39.53;;;5.57;;
77991;SDS011;67180;43.534;-5.652;2023-04-15T02:18:58;33.40;;;5.53;;
77991;SDS011;67180;43.534;-5.652;2023-04-15T02:21:25;38.33;;;5.22;;
77991;SDS011;67180;43.534;-5.652;2023-04-15T02:23:51;40.28;;;5.88;;
77991;SDS011;67180;43.534;-5.652;2023-04-15T02:26:19;36.10;;;5.00;;
77991;SDS011;67180;43.534;-5.652;2023-04-15T02:28:46;42.70;;;5.97;;
77991;SDS011;67180;43.534;-5.652;2023-04-15T02:31:15;39.63;;;6.05;;
77991;SDS011;67180;43.534;-5.652;2023-04-15T02:33:41;38.17;;;5.13;;
77991;SDS011;67180;43.534;-5.652;2023-04-15T02:36:08;35.42;;;5.38;;
77991;SDS011;67180;43.534;-5.652;2023-04-15T02:38:35;43.58;;;6.45;;
77991;SDS011;67180;43.534;-5.652;2023-04-15T02:41:02;40.85;;;5.50;;
77991;SDS011;67180;43.534;-5.652;2023-04-15T02:43:28;36.38;;;5.30;;
77991;SDS011;67180;43.534;-5.652;2023-04-15T02:46:03;43.80;;;7.05;;
77991;SDS011;67180;43.534;-5.652;2023-04-15T02:48:29;37.15;;;5.57;;
77991;SDS011;67180;43.534;-5.652;2023-04-15T02:51:12;42.25;;;7.38;;
77991;SDS011;67180;43.534;-5.652;2023-04-15T02:53:39;40.88;;;5.53;;
77991;SDS011;67180;43.534;-5.652;2023-04-15T02:56:05;36.97;;;6.03;;
77991;SDS011;67180;43.534;-5.652;2023-04-15T02:58:32;39.42;;;5.28;;
77991;SDS011;67180;43.534;-5.652;2023-04-15T03:00:58;31.95;;;5.07;;
77991;SDS011;67180;43.534;-5.652;2023-04-15T03:03:25;36.67;;;5.60;;
77991;SDS011;67180;43.534;-5.652;2023-04-15T03:05:52;34.50;;;5.55;;
77991;SDS011;67180;43.534;-5.652;2023-04-15T03:08:18;34.80;;;5.55;;
77991;SDS011;67180;43.534;-5.652;2023-04-15T03:10:45;38.22;;;5.47;;
77991;SDS011;67180;43.534;-5.652;2023-04-15T03:13:12;39.83;;;6.30;;
77991;SDS011;67180;43.534;-5.652;2023-04-15T03:15:38;40.53;;;5.72;;
77991;SDS011;67180;43.534;-5.652;2023-04-15T03:18:04;41.67;;;5.70;;
77991;SDS011;67180;43.534;-5.652;2023-04-15T03:20:30;41.72;;;5.43;;
77991;SDS011;67180;43.534;-5.652;2023-04-15T03:22:57;41.72;;;7.13;;
77991;SDS011;67180;43.534;-5.652;2023-04-15T03:25:23;34.90;;;5.70;;
77991;SDS011;67180;43.534;-5.652;2023-04-15T03:27:49;44.15;;;6.13;;
77991;SDS011;67180;43.534;-5.652;2023-04-15T03:30:16;53.25;;;8.20;;
77991;SDS011;67180;43.534;-5.652;2023-04-15T03:32:42;55.63;;;8.75;;
77991;SDS011;67180;43.534;-5.652;2023-04-15T03:35:08;45.13;;;8.18;;
77991;SDS011;67180;43.534;-5.652;2023-04-15T03:37:34;55.67;;;8.57;;
77991;SDS011;67180;43.534;-5.652;2023-04-15T03:40:01;46.95;;;8.55;;
77991;SDS011;67180;43.534;-5.652;2023-04-15T03:42:27;50.30;;;8.07;;
77991;SDS011;67180;43.534;-5.652;2023-04-15T03:44:53;46.97;;;6.72;;
77991;SDS011;67180;43.534;-5.652;2023-04-15T03:47:19;47.10;;;6.90;;
77991;SDS011;67180;43.534;-5.652;2023-04-15T03:49:46;47.45;;;7.38;;
77991;SDS011;67180;43.534;-5.652;2023-04-15T03:52:12;45.40;;;7.47;;
77991;SDS011;67180;43.534;-5.652;2023-04-15T03:54:38;35.85;;;5.80;;
77991;SDS011;67180;43.534;-5.652;2023-04-15T03:57:04;38.85;;;5.80;;
77991;SDS011;67180;43.534;-5.652;2023-04-15T03:59:31;46.63;;;7.68;;
77991;SDS011;67180;43.534;-5.652;2023-04-15T04:01:57;38.10;;;6.07;;
77991;SDS011;67180;43.534;-5.652;2023-04-15T04:04:23;37.75;;;5.35;;
77991;SDS011;67180;43.534;-5.652;2023-04-15T04:06:49;43.83;;;6.38;;
77991;SDS011;67180;43.534;-5.652;2023-04-15T04:09:15;27.35;;;4.97;;
77991;SDS011;67180;43.534;-5.652;2023-04-15T04:11:41;41.72;;;6.05;;
77991;SDS011;67180;43.534;-5.652;2023-04-15T04:14:09;42.22;;;6.03;;
77991;SDS011;67180;43.534;-5.652;2023-04-15T04:16:36;37.92;;;5.88;;
77991;SDS011;67180;43.534;-5.652;2023-04-15T04:19:02;36.22;;;5.35;;
77991;SDS011;67180;43.534;-5.652;2023-04-15T04:21:28;46.03;;;6.32;;
77991;SDS011;67180;43.534;-5.652;2023-04-15T04:23:54;33.92;;;5.53;;
77991;SDS011;67180;43.534;-5.652;2023-04-15T04:26:21;38.15;;;6.43;;
77991;SDS011;67180;43.534;-5.652;2023-04-15T04:28:47;39.13;;;5.53;;
77991;SDS011;67180;43.534;-5.652;2023-04-15T04:31:13;36.55;;;4.88;;
77991;SDS011;67180;43.534;-5.652;2023-04-15T04:33:39;41.80;;;5.85;;
77991;SDS011;67180;43.534;-5.652;2023-04-15T04:36:05;38.80;;;5.50;;
77991;SDS011;67180;43.534;-5.652;2023-04-15T04:38:32;41.22;;;5.60;;
77991;SDS011;67180;43.534;-5.652;2023-04-15T04:40:58;36.55;;;5.47;;
77991;SDS011;67180;43.534;-5.652;2023-04-15T04:43:24;35.58;;;4.30;;
77991;SDS011;67180;43.534;-5.652;2023-04-15T04:45:51;31.98;;;5.35;;
77991;SDS011;67180;43.534;-5.652;2023-04-15T04:48:17;37.08;;;5.10;;
77991;SDS011;67180;43.534;-5.652;2023-04-15T04:50:43;32.03;;;5.03;;
77991;SDS011;67180;43.534;-5.652;2023-04-15T04:53:11;35.88;;;5.25;;
77991;SDS011;67180;43.534;-5.652;2023-04-15T04:55:37;32.17;;;5.07;;
77991;SDS011;67180;43.534;-5.652;2023-04-15T04:58:03;32.38;;;5.43;;
77991;SDS011;67180;43.534;-5.652;2023-04-15T05:00:29;34.92;;;5.57;;
77991;SDS011;67180;43.534;-5.652;2023-04-15T05:02:55;26.45;;;4.50;;
77991;SDS011;67180;43.534;-5.652;2023-04-15T05:05:22;36.05;;;5.95;;
77991;SDS011;67180;43.534;-5.652;2023-04-15T05:07:48;33.13;;;4.85;;
77991;SDS011;67180;43.534;-5.652;2023-04-15T05:10:15;32.83;;;4.93;;
77991;SDS011;67180;43.534;-5.652;2023-04-15T05:12:42;27.10;;;4.18;;
77991;SDS011;67180;43.534;-5.652;2023-04-15T05:15:08;22.15;;;4.43;;
77991;SDS011;67180;43.534;-5.652;2023-04-15T05:17:34;25.45;;;4.72;;
77991;SDS011;67180;43.534;-5.652;2023-04-15T05:20:01;34.50;;;4.65;;
77991;SDS011;67180;43.534;-5.652;2023-04-15T05:22:27;36.30;;;5.70;;
77991;SDS011;67180;43.534;-5.652;2023-04-15T05:24:54;26.75;;;5.18;;
77991;SDS011;67180;43.534;-5.652;2023-04-15T05:27:20;31.65;;;4.90;;
77991;SDS011;67180;43.534;-5.652;2023-04-15T05:29:48;22.27;;;4.57;;
77991;SDS011;67180;43.534;-5.652;2023-04-15T05:32:14;22.45;;;4.18;;
77991;SDS011;67180;43.534;-5.652;2023-04-15T05:34:40;25.25;;;4.07;;
77991;SDS011;67180;43.534;-5.652;2023-04-15T05:37:07;17.33;;;3.90;;
77991;SDS011;67180;43.534;-5.652;2023-04-15T05:39:33;25.27;;;4.53;;
77991;SDS011;67180;43.534;-5.652;2023-04-15T05:41:59;27.15;;;4.03;;
77991;SDS011;67180;43.534;-5.652;2023-04-15T05:44:26;21.90;;;3.92;;
77991;SDS011;67180;43.534;-5.652;2023-04-15T05:46:52;28.25;;;4.32;;
77991;SDS011;67180;43.534;-5.652;2023-04-15T05:49:18;27.55;;;4.30;;
77991;SDS011;67180;43.534;-5.652;2023-04-15T05:51:46;22.27;;;4.30;;
77991;SDS011;67180;43.534;-5.652;2023-04-15T05:54:12;22.85;;;3.90;;
77991;SDS011;67180;43.534;-5.652;2023-04-15T05:56:38;29.33;;;4.97;;
77991;SDS011;67180;43.534;-5.652;2023-04-15T05:59:05;24.60;;;5.13;;
77991;SDS011;67180;43.534;-5.652;2023-04-15T06:01:32;30.38;;;5.35;;
77991;SDS011;67180;43.534;-5.652;2023-04-15T06:03:58;24.95;;;5.35;;
77991;SDS011;67180;43.534;-5.652;2023-04-15T06:06:25;31.73;;;5.68;;
77991;SDS011;67180;43.534;-5.652;2023-04-15T06:08:52;24.33;;;4.55;;
77991;SDS011;67180;43.534;-5.652;2023-04-15T06:11:19;29.15;;;4.85;;
77991;SDS011;67180;43.534;-5.652;2023-04-15T06:13:46;26.13;;;4.40;;
77991;SDS011;67180;43.534;-5.652;2023-04-15T06:16:12;27.30;;;4.93;;
77991;SDS011;67180;43.534;-5.652;2023-04-15T06:18:38;31.50;;;5.68;;
77991;SDS011;67180;43.534;-5.652;2023-04-15T06:21:04;27.50;;;5.55;;
77991;SDS011;67180;43.534;-5.652;2023-04-15T06:23:33;27.55;;;4.93;;
77991;SDS011;67180;43.534;-5.652;2023-04-15T06:26:00;26.65;;;5.65;;
77991;SDS011;67180;43.534;-5.652;2023-04-15T06:28:26;27.48;;;5.00;;
77991;SDS011;67180;43.534;-5.652;2023-04-15T06:30:52;26.27;;;4.97;;
77991;SDS011;67180;43.534;-5.652;2023-04-15T06:33:19;26.83;;;4.63;;
77991;SDS011;67180;43.534;-5.652;2023-04-15T06:35:45;27.45;;;4.28;;
77991;SDS011;67180;43.534;-5.652;2023-04-15T06:38:13;30.27;;;5.07;;
77991;SDS011;67180;43.534;-5.652;2023-04-15T06:40:39;24.73;;;5.25;;
77991;SDS011;67180;43.534;-5.652;2023-04-15T06:43:06;25.73;;;5.10;;
77991;SDS011;67180;43.534;-5.652;2023-04-15T06:45:33;31.25;;;4.93;;
77991;SDS011;67180;43.534;-5.652;2023-04-15T06:48:00;23.13;;;4.78;;
77991;SDS011;67180;43.534;-5.652;2023-04-15T06:50:27;22.98;;;4.50;;
77991;SDS011;67180;43.534;-5.652;2023-04-15T06:52:53;24.23;;;4.72;;
77991;SDS011;67180;43.534;-5.652;2023-04-15T06:55:19;24.25;;;4.43;;
77991;SDS011;67180;43.534;-5.652;2023-04-15T06:57:46;31.00;;;4.18;;
77991;SDS011;67180;43.534;-5.652;2023-04-15T07:00:12;24.77;;;4.57;;
77991;SDS011;67180;43.534;-5.652;2023-04-15T07:02:38;18.25;;;4.25;;
77991;SDS011;67180;43.534;-5.652;2023-04-15T07:05:05;23.35;;;4.18;;
77991;SDS011;67180;43.534;-5.652;2023-04-15T07:07:31;18.17;;;4.43;;
77991;SDS011;67180;43.534;-5.652;2023-04-15T07:09:57;26.00;;;4.82;;
77991;SDS011;67180;43.534;-5.652;2023-04-15T07:12:26;16.63;;;4.13;;
77991;SDS011;67180;43.534;-5.652;2023-04-15T07:14:52;30.42;;;5.25;;
77991;SDS011;67180;43.534;-5.652;2023-04-15T07:17:18;22.88;;;4.78;;
77991;SDS011;67180;43.534;-5.652;2023-04-15T07:19:44;26.52;;;3.92;;
77991;SDS011;67180;43.534;-5.652;2023-04-15T07:22:11;29.33;;;4.82;;
77991;SDS011;67180;43.534;-5.652;2023-04-15T07:24:37;19.80;;;4.47;;
77991;SDS011;67180;43.534;-5.652;2023-04-15T07:27:04;19.70;;;3.95;;
77991;SDS011;67180;43.534;-5.652;2023-04-15T07:29:30;25.52;;;4.10;;
77991;SDS011;67180;43.534;-5.652;2023-04-15T07:31:56;27.17;;;4.53;;
77991;SDS011;67180;43.534;-5.652;2023-04-15T07:34:22;20.48;;;4.45;;
77991;SDS011;67180;43.534;-5.652;2023-04-15T07:36:49;28.98;;;4.72;;
77991;SDS011;67180;43.534;-5.652;2023-04-15T07:39:17;26.00;;;4.22;;
77991;SDS011;67180;43.534;-5.652;2023-04-15T07:41:43;23.52;;;4.68;;
77991;SDS011;67180;43.534;-5.652;2023-04-15T07:44:10;20.85;;;4.45;;
77991;SDS011;67180;43.534;-5.652;2023-04-15T07:46:36;28.88;;;5.05;;
77991;SDS011;67180;43.534;-5.652;2023-04-15T07:49:03;21.38;;;4.50;;
77991;SDS011;67180;43.534;-5.652;2023-04-15T07:51:29;25.02;;;4.10;;
77991;SDS011;67180;43.534;-5.652;2023-04-15T07:53:56;20.13;;;4.30;;
77991;SDS011;67180;43.534;-5.652;2023-04-15T07:56:22;26.48;;;4.38;;
77991;SDS011;67180;43.534;-5.652;2023-04-15T07:58:49;23.98;;;4.25;;
77991;SDS011;67180;43.534;-5.652;2023-04-15T08:01:15;21.33;;;4.30;;
77991;SDS011;67180;43.534;-5.652;2023-04-15T08:03:41;27.13;;;4.70;;
77991;SDS011;67180;43.534;-5.652;2023-04-15T08:06:07;21.60;;;4.35;;
77991;SDS011;67180;43.534;-5.652;2023-04-15T08:08:34;19.10;;;3.83;;
77991;SDS011;67180;43.534;-5.652;2023-04-15T08:11:00;25.65;;;4.35;;
77991;SDS011;67180;43.534;-5.652;2023-04-15T08:13:26;21.35;;;4.20;;
77991;SDS011;67180;43.534;-5.652;2023-04-15T08:16:12;18.65;;;3.72;;
77991;SDS011;67180;43.534;-5.652;2023-04-15T08:18:38;18.08;;;3.95;;
77991;SDS011;67180;43.534;-5.652;2023-04-15T08:21:04;20.23;;;4.72;;
77991;SDS011;67180;43.534;-5.652;2023-04-15T08:23:31;26.80;;;4.35;;
77991;SDS011;67180;43.534;-5.652;2023-04-15T08:25:57;19.98;;;4.00;;
77991;SDS011;67180;43.534;-5.652;2023-04-15T08:28:23;23.67;;;5.60;;
77991;SDS011;67180;43.534;-5.652;2023-04-15T08:30:51;27.17;;;4.60;;
77991;SDS011;67180;43.534;-5.652;2023-04-15T08:33:17;16.90;;;3.72;;
77991;SDS011;67180;43.534;-5.652;2023-04-15T08:35:44;20.40;;;4.30;;
77991;SDS011;67180;43.534;-5.652;2023-04-15T08:38:10;24.83;;;4.68;;
77991;SDS011;67180;43.534;-5.652;2023-04-15T08:40:44;19.55;;;4.10;;
77991;SDS011;67180;43.534;-5.652;2023-04-15T08:43:14;20.95;;;4.55;;
77991;SDS011;67180;43.534;-5.652;2023-04-15T08:45:41;21.63;;;4.30;;
77991;SDS011;67180;43.534;-5.652;2023-04-15T08:48:08;18.42;;;4.10;;
77991;SDS011;67180;43.534;-5.652;2023-04-15T08:50:34;23.90;;;4.90;;
77991;SDS011;67180;43.534;-5.652;2023-04-15T08:53:01;23.25;;;4.50;;
77991;SDS011;67180;43.534;-5.652;2023-04-15T08:55:29;21.73;;;4.93;;
77991;SDS011;67180;43.534;-5.652;2023-04-15T08:57:55;25.80;;;5.13;;
77991;SDS011;67180;43.534;-5.652;2023-04-15T09:00:22;24.65;;;5.18;;
77991;SDS011;67180;43.534;-5.652;2023-04-15T09:02:48;30.33;;;5.45;;
77991;SDS011;67180;43.534;-5.652;2023-04-15T09:05:15;21.15;;;4.32;;
77991;SDS011;67180;43.534;-5.652;2023-04-15T09:07:41;24.33;;;5.13;;
77991;SDS011;67180;43.534;-5.652;2023-04-15T09:10:09;20.55;;;4.72;;
77991;SDS011;67180;43.534;-5.652;2023-04-15T09:12:35;23.70;;;4.95;;
77991;SDS011;67180;43.534;-5.652;2023-04-15T09:15:02;19.23;;;4.55;;
77991;SDS011;67180;43.534;-5.652;2023-04-15T09:17:29;22.33;;;4.53;;
77991;SDS011;67180;43.534;-5.652;2023-04-15T09:20:06;25.88;;;5.13;;
77991;SDS011;67180;43.534;-5.652;2023-04-15T09:22:32;16.35;;;4.20;;
77991;SDS011;67180;43.534;-5.652;2023-04-15T09:24:59;22.05;;;4.20;;
77991;SDS011;67180;43.534;-5.652;2023-04-15T09:27:25;19.65;;;4.80;;
77991;SDS011;67180;43.534;-5.652;2023-04-15T09:29:52;22.35;;;4.97;;
77991;SDS011;67180;43.534;-5.652;2023-04-15T09:32:19;19.83;;;3.75;;
77991;SDS011;67180;43.534;-5.652;2023-04-15T09:34:47;23.13;;;4.55;;
77991;SDS011;67180;43.534;-5.652;2023-04-15T09:37:13;17.52;;;3.95;;
77991;SDS011;67180;43.534;-5.652;2023-04-15T09:39:44;16.52;;;4.30;;
77991;SDS011;67180;43.534;-5.652;2023-04-15T09:42:11;21.38;;;5.22;;
77991;SDS011;67180;43.534;-5.652;2023-04-15T09:44:37;25.15;;;5.07;;
77991;SDS011;67180;43.534;-5.652;2023-04-15T09:47:06;15.77;;;3.90;;
77991;SDS011;67180;43.534;-5.652;2023-04-15T09:49:33;21.38;;;4.10;;
77991;SDS011;67180;43.534;-5.652;2023-04-15T09:51:59;17.25;;;4.05;;
77991;SDS011;67180;43.534;-5.652;2023-04-15T09:57:06;18.02;;;3.45;;
77991;SDS011;67180;43.534;-5.652;2023-04-15T09:59:33;14.77;;;4.05;;
77991;SDS011;67180;43.534;-5.652;2023-04-15T10:01:59;17.35;;;4.15;;
77991;SDS011;67180;43.534;-5.652;2023-04-15T10:04:26;14.02;;;4.18;;
77991;SDS011;67180;43.534;-5.652;2023-04-15T10:06:52;14.30;;;3.63;;
77991;SDS011;67180;43.534;-5.652;2023-04-15T10:09:18;29.33;;;5.05;;
77991;SDS011;67180;43.534;-5.652;2023-04-15T10:11:45;22.15;;;4.32;;
77991;SDS011;67180;43.534;-5.652;2023-04-15T10:14:13;21.92;;;4.47;;
77991;SDS011;67180;43.534;-5.652;2023-04-15T10:16:40;18.23;;;4.88;;
77991;SDS011;67180;43.534;-5.652;2023-04-15T10:19:07;19.35;;;4.97;;
77991;SDS011;67180;43.534;-5.652;2023-04-15T10:21:34;17.50;;;4.57;;
77991;SDS011;67180;43.534;-5.652;2023-04-15T10:24:01;20.05;;;4.60;;
77991;SDS011;67180;43.534;-5.652;2023-04-15T10:26:28;20.77;;;4.35;;
77991;SDS011;67180;43.534;-5.652;2023-04-15T10:28:55;15.13;;;4.30;;
77991;SDS011;67180;43.534;-5.652;2023-04-15T10:31:21;19.45;;;4.53;;
77991;SDS011;67180;43.534;-5.652;2023-04-15T10:33:48;14.55;;;3.58;;
77991;SDS011;67180;43.534;-5.652;2023-04-15T10:36:15;17.38;;;4.10;;
77991;SDS011;67180;43.534;-5.652;2023-04-15T10:38:42;20.48;;;4.63;;
77991;SDS011;67180;43.534;-5.652;2023-04-15T10:41:25;22.63;;;5.25;;
77991;SDS011;67180;43.534;-5.652;2023-04-15T10:43:54;21.60;;;5.20;;
77991;SDS011;67180;43.534;-5.652;2023-04-15T10:46:37;20.35;;;5.40;;
77991;SDS011;67180;43.534;-5.652;2023-04-15T10:49:10;18.55;;;4.53;;
77991;SDS011;67180;43.534;-5.652;2023-04-15T10:51:37;15.00;;;4.57;;
77991;SDS011;67180;43.534;-5.652;2023-04-15T10:54:14;20.45;;;4.53;;
77991;SDS011;67180;43.534;-5.652;2023-04-15T10:56:42;13.77;;;4.15;;
77991;SDS011;67180;43.534;-5.652;2023-04-15T10:59:08;19.02;;;4.28;;
77991;SDS011;67180;43.534;-5.652;2023-04-15T11:04:49;15.98;;;4.30;;
77991;SDS011;67180;43.534;-5.652;2023-04-15T11:07:05;16.38;;;4.20;;
77991;SDS011;67180;43.534;-5.652;2023-04-15T11:09:31;16.98;;;4.05;;
77991;SDS011;67180;43.534;-5.652;2023-04-15T11:12:13;15.30;;;3.80;;
77991;SDS011;67180;43.534;-5.652;2023-04-15T11:14:40;18.27;;;3.85;;
77991;SDS011;67180;43.534;-5.652;2023-04-15T11:17:07;17.15;;;3.75;;
77991;SDS011;67180;43.534;-5.652;2023-04-15T11:19:35;14.77;;;3.78;;
77991;SDS011;67180;43.534;-5.652;2023-04-15T11:22:06;13.85;;;3.95;;
77991;SDS011;67180;43.534;-5.652;2023-04-15T11:24:32;11.85;;;3.22;;
77991;SDS011;67180;43.534;-5.652;2023-04-15T11:26:58;16.90;;;3.80;;
77991;SDS011;67180;43.534;-5.652;2023-04-15T11:29:28;15.13;;;3.88;;
77991;SDS011;67180;43.534;-5.652;2023-04-15T11:34:33;16.70;;;3.88;;
77991;SDS011;67180;43.534;-5.652;2023-04-15T11:37:04;15.57;;;4.50;;
77991;SDS011;67180;43.534;-5.652;2023-04-15T11:39:31;18.00;;;4.60;;
77991;SDS011;67180;43.534;-5.652;2023-04-15T11:41:58;12.93;;;3.85;;
77991;SDS011;67180;43.534;-5.652;2023-04-15T11:44:24;15.52;;;4.32;;
77991;SDS011;67180;43.534;-5.652;2023-04-15T11:46:50;18.23;;;4.00;;
77991;SDS011;67180;43.534;-5.652;2023-04-15T11:51:53;16.88;;;3.97;;
77991;SDS011;67180;43.534;-5.652;2023-04-15T11:54:19;14.85;;;4.15;;
77991;SDS011;67180;43.534;-5.652;2023-04-15T11:56:49;16.33;;;3.67;;
77991;SDS011;67180;43.534;-5.652;2023-04-15T11:59:16;13.05;;;3.58;;
77991;SDS011;67180;43.534;-5.652;2023-04-15T12:01:43;15.73;;;3.80;;
77991;SDS011;67180;43.534;-5.652;2023-04-15T12:04:13;15.73;;;3.33;;
77991;SDS011;67180;43.534;-5.652;2023-04-15T12:06:39;15.43;;;3.72;;
77991;SDS011;67180;43.534;-5.652;2023-04-15T12:09:07;12.73;;;3.50;;
77991;SDS011;67180;43.534;-5.652;2023-04-15T12:11:36;14.45;;;3.60;;
77991;SDS011;67180;43.534;-5.652;2023-04-15T12:14:04;14.88;;;3.08;;
77991;SDS011;67180;43.534;-5.652;2023-04-15T12:16:32;15.43;;;3.58;;
77991;SDS011;67180;43.534;-5.652;2023-04-15T12:18:59;12.52;;;3.40;;
77991;SDS011;67180;43.534;-5.652;2023-04-15T12:21:26;23.98;;;3.95;;
77991;SDS011;67180;43.534;-5.652;2023-04-15T12:23:54;15.57;;;4.00;;
77991;SDS011;67180;43.534;-5.652;2023-04-15T12:26:28;13.68;;;3.80;;
77991;SDS011;67180;43.534;-5.652;2023-04-15T12:28:59;14.73;;;3.95;;
77991;SDS011;67180;43.534;-5.652;2023-04-15T12:31:26;10.75;;;3.50;;
77991;SDS011;67180;43.534;-5.652;2023-04-15T12:33:55;14.50;;;3.80;;
77991;SDS011;67180;43.534;-5.652;2023-04-15T12:36:22;14.73;;;4.07;;
77991;SDS011;67180;43.534;-5.652;2023-04-15T12:38:48;14.85;;;3.78;;
77991;SDS011;67180;43.534;-5.652;2023-04-15T12:41:15;19.48;;;3.80;;
77991;SDS011;67180;43.534;-5.652;2023-04-15T12:43:43;14.05;;;3.08;;
77991;SDS011;67180;43.534;-5.652;2023-04-15T12:46:10;10.60;;;3.33;;
77991;SDS011;67180;43.534;-5.652;2023-04-15T12:48:36;14.70;;;3.88;;
77991;SDS011;67180;43.534;-5.652;2023-04-15T12:51:04;12.35;;;3.40;;
77991;SDS011;67180;43.534;-5.652;2023-04-15T12:53:33;12.00;;;3.40;;
77991;SDS011;67180;43.534;-5.652;2023-04-15T12:56:00;15.73;;;2.75;;
77991;SDS011;67180;43.534;-5.652;2023-04-15T12:58:26;14.55;;;3.53;;
77991;SDS011;67180;43.534;-5.652;2023-04-15T13:00:52;12.73;;;3.33;;
77991;SDS011;67180;43.534;-5.652;2023-04-15T13:03:18;12.70;;;3.28;;
77991;SDS011;67180;43.534;-5.652;2023-04-15T13:05:45;15.82;;;3.85;;
77991;SDS011;67180;43.534;-5.652;2023-04-15T13:08:11;11.00;;;3.50;;
77991;SDS011;67180;43.534;-5.652;2023-04-15T13:10:37;9.05;;;3.33;;
77991;SDS011;67180;43.534;-5.652;2023-04-15T13:13:03;10.80;;;3.15;;
77991;SDS011;67180;43.534;-5.652;2023-04-15T13:15:30;17.20;;;4.03;;
77991;SDS011;67180;43.534;-5.652;2023-04-15T13:17:56;15.05;;;3.25;;
77991;SDS011;67180;43.534;-5.652;2023-04-15T13:20:23;10.63;;;3.05;;
77991;SDS011;67180;43.534;-5.652;2023-04-15T13:22:51;15.95;;;3.50;;
77991;SDS011;67180;43.534;-5.652;2023-04-15T13:25:17;15.05;;;3.45;;
77991;SDS011;67180;43.534;-5.652;2023-04-15T13:27:43;16.95;;;4.32;;
77991;SDS011;67180;43.534;-5.652;2023-04-15T13:30:10;10.00;;;3.28;;
77991;SDS011;67180;43.534;-5.652;2023-04-15T13:32:36;15.02;;;3.67;;
77991;SDS011;67180;43.534;-5.652;2023-04-15T13:35:02;14.77;;;3.80;;
77991;SDS011;67180;43.534;-5.652;2023-04-15T13:37:29;16.13;;;4.03;;
77991;SDS011;67180;43.534;-5.652;2023-04-15T13:39:55;16.13;;;4.40;;
77991;SDS011;67180;43.534;-5.652;2023-04-15T13:42:22;25.23;;;4.30;;
77991;SDS011;67180;43.534;-5.652;2023-04-15T13:44:48;17.85;;;3.78;;
77991;SDS011;67180;43.534;-5.652;2023-04-15T13:47:15;18.67;;;4.10;;
77991;SDS011;67180;43.534;-5.652;2023-04-15T13:49:42;21.60;;;5.13;;
77991;SDS011;67180;43.534;-5.652;2023-04-15T13:52:09;20.63;;;4.22;;
77991;SDS011;67180;43.534;-5.652;2023-04-15T13:54:36;14.00;;;3.83;;
77991;SDS011;67180;43.534;-5.652;2023-04-15T13:57:02;14.10;;;3.90;;
77991;SDS011;67180;43.534;-5.652;2023-04-15T13:59:28;20.48;;;3.88;;
77991;SDS011;67180;43.534;-5.652;2023-04-15T14:01:55;19.98;;;3.35;;
77991;SDS011;67180;43.534;-5.652;2023-04-15T14:04:21;16.83;;;3.60;;
77991;SDS011;67180;43.534;-5.652;2023-04-15T14:06:47;22.50;;;3.78;;
77991;SDS011;67180;43.534;-5.652;2023-04-15T14:09:13;16.75;;;3.65;;
77991;SDS011;67180;43.534;-5.652;2023-04-15T14:11:40;13.07;;;3.75;;
77991;SDS011;67180;43.534;-5.652;2023-04-15T14:14:06;15.65;;;3.85;;
77991;SDS011;67180;43.534;-5.652;2023-04-15T14:16:32;17.98;;;4.05;;
77991;SDS011;67180;43.534;-5.652;2023-04-15T14:18:59;19.88;;;3.92;;
77991;SDS011;67180;43.534;-5.652;2023-04-15T14:21:25;18.02;;;3.58;;
77991;SDS011;67180;43.534;-5.652;2023-04-15T14:23:52;16.27;;;3.58;;
77991;SDS011;67180;43.534;-5.652;2023-04-15T14:26:18;16.35;;;3.60;;
77991;SDS011;67180;43.534;-5.652;2023-04-15T14:28:45;16.27;;;3.80;;
77991;SDS011;67180;43.534;-5.652;2023-04-15T14:31:12;15.65;;;4.10;;